createdAt,value
2023-03-12T00:01:10.447Z,-0.18
2023-03-12T00:03:36.867Z,-0.19
2023-03-12T00:06:10.576Z,-0.16
2023-03-12T00:08:37.595Z,-0.12
2023-03-12T00:11:09.447Z,-0.06
2023-03-12T00:13:35.930Z,-0.09
2023-03-12T00:16:13.877Z,-0.05
2023-03-12T00:18:41.792Z,-0.01
2023-03-12T00:21:09.326Z,-0.03
2023-03-12T00:23:36.727Z,-0.03
2023-03-12T00:26:14.301Z,0.01
2023-03-12T00:28:41.356Z,0.06
2023-03-12T00:31:17.947Z,0.04
2023-03-12T00:33:45.224Z,0.01
2023-03-12T00:36:12.433Z,0.06
2023-03-12T00:38:38.883Z,0.10
2023-03-12T00:41:05.279Z,0.14
2023-03-12T00:43:31.776Z,0.16
2023-03-12T00:45:58.244Z,0.18
2023-03-12T00:48:25.351Z,0.22
2023-03-12T00:50:51.860Z,0.25
2023-03-12T00:53:18.295Z,0.27
2023-03-12T00:55:44.766Z,0.28
2023-03-12T00:58:11.186Z,0.27
2023-03-12T01:00:37.650Z,0.27
2023-03-12T01:03:04.313Z,0.26
2023-03-12T01:05:33.474Z,0.23
2023-03-12T01:08:01.181Z,0.17
2023-03-12T01:10:27.638Z,0.12
2023-03-12T01:12:54.022Z,0.04
2023-03-12T01:15:20.504Z,-0.01
2023-03-12T01:17:46.995Z,-0.02
2023-03-12T01:20:13.862Z,-0.01
2023-03-12T01:22:40.340Z,0.01
2023-03-12T01:25:07.290Z,0.05
2023-03-12T01:27:33.690Z,0.07
2023-03-12T01:30:00.334Z,0.09
2023-03-12T01:32:26.813Z,0.11
2023-03-12T01:34:53.562Z,0.14
2023-03-12T01:37:19.968Z,0.18
2023-03-12T01:39:46.441Z,0.22
2023-03-12T01:42:12.870Z,0.24
2023-03-12T01:44:58.187Z,0.27
2023-03-12T01:47:25.868Z,0.26
2023-03-12T01:49:55.113Z,0.29
2023-03-12T01:52:29.251Z,0.31
2023-03-12T01:55:04.702Z,0.31
2023-03-12T01:57:43.536Z,0.32
2023-03-12T02:00:20.059Z,0.31
2023-03-12T02:02:49.381Z,0.36
2023-03-12T02:05:25.238Z,0.39
2023-03-12T02:07:51.699Z,0.43
2023-03-12T02:10:18.401Z,0.43
2023-03-12T02:12:45.091Z,0.42
2023-03-12T02:15:11.606Z,0.43
2023-03-12T02:17:39.440Z,0.47
2023-03-12T02:20:44.874Z,0.47
2023-03-12T02:23:56.041Z,0.53
2023-03-12T02:26:24.492Z,0.57
2023-03-12T02:28:51.022Z,0.58
2023-03-12T02:31:22.740Z,0.56
2023-03-12T02:33:49.173Z,0.58
2023-03-12T02:36:15.665Z,0.59
2023-03-12T02:38:49.674Z,0.59
2023-03-12T02:41:34.080Z,0.61
2023-03-12T02:44:13.302Z,0.62
2023-03-12T02:46:44.564Z,0.63
2023-03-12T02:49:13.210Z,0.65
2023-03-12T02:51:41.431Z,0.66
2023-03-12T02:54:08.518Z,0.68
2023-03-12T02:56:35.476Z,0.69
2023-03-12T02:59:04.388Z,0.70
2023-03-12T03:01:34.165Z,0.73
2023-03-12T03:04:02.781Z,0.74
2023-03-12T03:06:29.929Z,0.73
2023-03-12T03:08:56.496Z,0.70
2023-03-12T03:11:24.656Z,0.68
2023-03-12T03:13:54.837Z,0.72
2023-03-12T03:16:22.204Z,0.75
2023-03-12T03:18:48.657Z,0.77
2023-03-12T03:21:18.970Z,0.77
2023-03-12T03:23:47.442Z,0.78
2023-03-12T03:26:14.256Z,0.80
2023-03-12T03:31:07.662Z,0.81
2023-03-12T03:33:36.373Z,0.80
2023-03-12T03:36:04.466Z,0.82
2023-03-12T03:38:32.659Z,0.83
2023-03-12T03:40:59.136Z,0.83
2023-03-12T03:43:25.919Z,0.84
2023-03-12T03:46:00.917Z,0.85
2023-03-12T03:48:27.921Z,0.87
2023-03-12T03:50:54.404Z,0.88
2023-03-12T03:53:21.202Z,0.89
2023-03-12T03:55:48.080Z,0.91
2023-03-12T03:58:14.553Z,0.91
2023-03-12T04:00:40.957Z,0.96
2023-03-12T04:03:07.783Z,0.95
2023-03-12T04:05:34.282Z,0.94
2023-03-12T04:08:03.101Z,0.96
2023-03-12T04:10:30.300Z,0.98
2023-03-12T04:12:57.223Z,0.99
2023-03-12T04:15:24.455Z,0.99
2023-03-12T04:17:51.083Z,1.01
2023-03-12T04:20:17.740Z,1.04
2023-03-12T04:22:44.241Z,1.09
2023-03-12T04:25:11.374Z,1.14
2023-03-12T04:27:37.785Z,1.20
2023-03-12T04:30:05.289Z,1.23
2023-03-12T04:32:31.785Z,1.24
2023-03-12T04:34:58.306Z,1.24
2023-03-12T04:37:24.763Z,1.27
2023-03-12T04:39:51.249Z,1.28
2023-03-12T04:42:17.672Z,1.29
2023-03-12T04:44:44.137Z,1.29
2023-03-12T04:47:10.592Z,1.29
2023-03-12T04:49:39.063Z,1.29
2023-03-12T04:52:05.949Z,1.28
2023-03-12T04:54:33.127Z,1.25
2023-03-12T04:56:59.586Z,1.23
2023-03-12T04:59:26.050Z,1.23
2023-03-12T05:01:52.653Z,1.22
2023-03-12T05:04:19.118Z,1.20
2023-03-12T05:06:45.613Z,1.20
2023-03-12T05:09:12.059Z,1.17
2023-03-12T05:11:39.809Z,1.17
2023-03-12T05:14:06.636Z,1.15
2023-03-12T05:16:33.189Z,1.15
2023-03-12T05:18:59.775Z,1.15
2023-03-12T05:21:26.215Z,1.16
2023-03-12T05:23:52.706Z,1.16
2023-03-12T05:26:26.087Z,1.16
2023-03-12T05:28:52.858Z,1.17
2023-03-12T05:31:20.108Z,1.17
2023-03-12T05:33:47.296Z,1.17
2023-03-12T05:36:14.469Z,1.20
2023-03-12T05:38:42.676Z,1.20
2023-03-12T05:41:16.939Z,1.20
2023-03-12T05:43:43.380Z,1.21
2023-03-12T05:46:10.344Z,1.22
2023-03-12T05:48:36.870Z,1.24
2023-03-12T05:51:03.440Z,1.27
2023-03-12T05:53:29.857Z,1.28
2023-03-12T05:56:03.574Z,1.31
2023-03-12T05:58:30.599Z,1.32
2023-03-12T06:00:57.308Z,1.34
2023-03-12T06:03:23.841Z,1.37
2023-03-12T06:05:50.737Z,1.39
2023-03-12T06:08:17.157Z,1.40
2023-03-12T06:10:43.616Z,1.44
2023-03-12T06:13:10.881Z,1.46
2023-03-12T06:15:37.393Z,1.46
2023-03-12T06:18:04.018Z,1.49
2023-03-12T06:20:30.493Z,1.48
2023-03-12T06:22:56.932Z,1.50
2023-03-12T06:25:23.383Z,1.51
2023-03-12T06:27:49.773Z,1.51
2023-03-12T06:30:16.581Z,1.51
2023-03-12T06:32:43.146Z,1.50
2023-03-12T06:35:09.938Z,1.51
2023-03-12T06:37:36.561Z,1.50
2023-03-12T06:40:04.851Z,1.49
2023-03-12T06:42:32.275Z,1.49
2023-03-12T06:44:58.735Z,1.51
2023-03-12T06:47:25.143Z,1.53
2023-03-12T06:49:51.599Z,1.52
2023-03-12T06:52:21.037Z,1.49
2023-03-12T06:54:47.603Z,1.48
2023-03-12T06:57:16.602Z,1.47
2023-03-12T06:59:43.321Z,1.49
2023-03-12T07:02:11.529Z,1.48
2023-03-12T07:04:38.201Z,1.49
2023-03-12T07:07:04.796Z,1.47
2023-03-12T07:09:31.264Z,1.52
2023-03-12T07:11:57.816Z,1.53
2023-03-12T07:14:24.277Z,1.54
2023-03-12T07:16:50.832Z,1.56
2023-03-12T07:19:19.355Z,1.59
2023-03-12T07:21:45.780Z,1.62
2023-03-12T07:24:12.214Z,1.64
2023-03-12T07:26:38.620Z,1.64
2023-03-12T07:29:05.177Z,1.67
2023-03-12T07:31:31.708Z,1.67
2023-03-12T07:33:58.233Z,1.67
2023-03-12T07:36:24.917Z,1.70
2023-03-12T07:38:51.429Z,1.72
2023-03-12T07:41:17.928Z,1.73
2023-03-12T07:43:44.562Z,1.75
2023-03-12T07:46:11.310Z,1.78
2023-03-12T07:48:38.581Z,1.77
2023-03-12T07:51:05.840Z,1.77
2023-03-12T07:53:32.442Z,1.82
2023-03-12T07:55:59.183Z,1.82
2023-03-12T07:58:25.835Z,1.86
2023-03-12T08:00:55.370Z,1.89
2023-03-12T08:03:21.993Z,1.90
2023-03-12T08:06:02.793Z,1.94
2023-03-12T08:08:31.227Z,1.97
2023-03-12T08:10:59.478Z,2.01
2023-03-12T08:13:26.530Z,2.04
2023-03-12T08:15:54.083Z,2.05
2023-03-12T08:18:21.025Z,2.09
2023-03-12T08:20:53.764Z,2.14
2023-03-12T08:23:21.488Z,2.16
2023-03-12T08:25:49.791Z,2.19
2023-03-12T08:28:17.307Z,2.21
2023-03-12T08:30:48.871Z,2.23
2023-03-12T08:33:15.801Z,2.26
2023-03-12T08:35:42.326Z,2.31
2023-03-12T08:38:09.010Z,2.38
2023-03-12T08:40:35.668Z,2.45
2023-03-12T08:43:02.172Z,2.47
2023-03-12T08:45:28.753Z,2.51
2023-03-12T08:47:55.205Z,2.55
2023-03-12T08:50:22.866Z,2.56
2023-03-12T08:52:49.301Z,2.60
2023-03-12T08:55:18.866Z,2.66
2023-03-12T08:57:45.516Z,2.75
2023-03-12T09:00:15.038Z,2.79
2023-03-12T09:02:44.907Z,2.84
2023-03-12T09:05:11.997Z,2.93
2023-03-12T09:07:38.861Z,2.97
2023-03-12T09:10:06.257Z,3.04
2023-03-12T09:12:32.811Z,3.13
2023-03-12T09:15:04.288Z,3.23
2023-03-12T09:17:31.204Z,3.36
2023-03-12T09:19:57.745Z,3.51
2023-03-12T09:22:24.352Z,3.69
2023-03-12T09:24:50.890Z,3.73
2023-03-12T09:27:17.381Z,3.74
2023-03-12T09:29:58.743Z,3.78
2023-03-12T09:32:27.388Z,3.84
2023-03-12T09:34:54.380Z,4.00
2023-03-12T09:37:23.752Z,4.21
2023-03-12T09:39:51.560Z,4.25
2023-03-12T09:42:30.462Z,4.42
2023-03-12T09:45:00.461Z,4.51
2023-03-12T09:47:31.762Z,4.54
2023-03-12T09:50:31.707Z,4.61
2023-03-12T09:53:04.609Z,4.58
2023-03-12T09:55:40.276Z,4.65
2023-03-12T10:01:37.390Z,4.82
2023-03-12T10:04:03.782Z,4.89
2023-03-12T10:06:36.610Z,4.94
2023-03-12T10:09:08.155Z,5.08
2023-03-12T10:11:37.468Z,5.22
2023-03-12T10:14:23.894Z,5.28
2023-03-12T10:16:59.210Z,5.27
2023-03-12T10:19:39.822Z,5.28
2023-03-12T10:22:30.750Z,5.47
2023-03-12T10:25:31.936Z,5.54
2023-03-12T10:28:05.666Z,5.52
2023-03-12T10:30:33.188Z,5.60
2023-03-12T10:33:06.906Z,5.69
2023-03-12T10:35:33.371Z,5.73
2023-03-12T10:38:01.770Z,5.79
2023-03-12T10:40:30.733Z,5.84
2023-03-12T10:42:57.627Z,5.95
2023-03-12T10:45:58.213Z,6.04
2023-03-12T10:48:25.873Z,6.21
2023-03-12T10:51:21.560Z,6.28
2023-03-12T10:53:48.058Z,6.33
2023-03-12T10:56:19.400Z,6.51
2023-03-12T10:58:48.954Z,6.77
2023-03-12T11:01:15.499Z,6.78
2023-03-12T11:03:43.921Z,6.80
2023-03-12T11:06:24.642Z,6.92
2023-03-12T11:09:19.616Z,7.00
2023-03-12T11:11:48.165Z,6.99
2023-03-12T11:14:20.527Z,7.03
2023-03-12T11:16:47.569Z,7.05
2023-03-12T11:19:26.417Z,7.09
2023-03-12T11:22:01.674Z,7.14
2023-03-12T11:24:28.881Z,7.23
2023-03-12T11:27:26.038Z,7.30
2023-03-12T11:29:54.286Z,7.32
2023-03-12T11:32:37.414Z,7.35
2023-03-12T11:35:10.116Z,7.46
2023-03-12T11:38:10.511Z,7.52
2023-03-12T11:41:09.894Z,7.59
2023-03-12T11:43:49.141Z,7.60
2023-03-12T11:46:37.394Z,7.54
2023-03-12T11:49:09.878Z,7.52
2023-03-12T11:52:13.845Z,7.52
2023-03-12T11:54:54.859Z,7.55
2023-03-12T11:57:27.318Z,7.55
2023-03-12T12:00:14.570Z,7.60
2023-03-12T12:02:47.010Z,7.65
2023-03-12T12:05:27.653Z,7.74
2023-03-12T12:08:35.769Z,7.79
2023-03-12T12:11:08.106Z,7.78
2023-03-12T12:13:52.617Z,7.88
2023-03-12T12:16:56.696Z,8.01
2023-03-12T12:19:37.336Z,8.01
2023-03-12T12:22:12.446Z,8.00
2023-03-12T12:25:12.590Z,7.99
2023-03-12T12:27:54.966Z,8.08
2023-03-12T12:30:50.758Z,8.21
2023-03-12T12:33:40.763Z,8.34
2023-03-12T12:36:10.254Z,8.54
2023-03-12T12:38:42.368Z,8.59
2023-03-12T12:41:17.918Z,8.69
2023-03-12T12:43:49.467Z,8.78
2023-03-12T12:46:19.906Z,8.78
2023-03-12T12:49:10.886Z,8.73
2023-03-12T12:51:43.636Z,8.74
2023-03-12T12:54:30.575Z,8.74
2023-03-12T12:57:07.358Z,8.80
2023-03-12T12:59:40.501Z,8.96
2023-03-12T13:02:30.087Z,9.06
2023-03-12T13:04:58.850Z,9.07
2023-03-12T13:07:27.713Z,9.08
2023-03-12T13:09:56.953Z,9.10
2023-03-12T13:12:47.591Z,9.20
2023-03-12T13:15:29.410Z,9.28
2023-03-12T13:17:55.837Z,9.21
2023-03-12T13:20:28.877Z,9.15
2023-03-12T13:23:21.945Z,9.02
2023-03-12T13:26:17.416Z,9.01
2023-03-12T13:28:56.788Z,9.06
2023-03-12T13:31:29.209Z,9.08
2023-03-12T13:33:59.811Z,9.05
2023-03-12T13:36:28.587Z,9.01
2023-03-12T13:39:07.596Z,9.01
2023-03-12T13:41:38.743Z,8.97
2023-03-12T13:44:23.496Z,8.97
2023-03-12T13:47:03.744Z,9.18
2023-03-12T13:49:43.329Z,9.47
2023-03-12T13:52:34.282Z,9.73
2023-03-12T13:55:05.734Z,9.96
2023-03-12T13:57:40.474Z,10.03
2023-03-12T14:00:21.090Z,10.22
2023-03-12T14:02:54.912Z,10.17
2023-03-12T14:05:21.906Z,10.14
2023-03-12T14:08:30.982Z,10.24
2023-03-12T14:11:20.461Z,10.37
2023-03-12T14:14:07.943Z,10.60
2023-03-12T14:16:43.082Z,10.67
2023-03-12T14:19:14.176Z,10.61
2023-03-12T14:21:44.105Z,10.53
2023-03-12T14:24:20.152Z,10.43
2023-03-12T14:26:47.158Z,10.38
2023-03-12T14:29:38.945Z,10.26
2023-03-12T14:32:20.505Z,10.26
2023-03-12T14:34:53.727Z,10.24
2023-03-12T14:37:41.181Z,10.17
2023-03-12T14:40:20.272Z,10.19
2023-03-12T14:42:47.425Z,10.25
2023-03-12T14:45:18.689Z,10.28
2023-03-12T14:47:48.126Z,10.27
2023-03-12T14:50:20.352Z,10.31
2023-03-12T14:52:46.977Z,10.37
2023-03-12T14:55:18.303Z,10.39
2023-03-12T14:57:45.703Z,10.38
2023-03-12T15:00:26.551Z,10.37
2023-03-12T15:02:56.837Z,10.35
2023-03-12T15:05:23.902Z,10.34
2023-03-12T15:07:55.853Z,10.32
2023-03-12T15:10:25.638Z,10.23
2023-03-12T15:12:55.319Z,10.18
2023-03-12T15:15:36.069Z,10.13
2023-03-12T15:18:11.553Z,10.17
2023-03-12T15:20:38.143Z,10.16
2023-03-12T15:23:06.558Z,10.19
2023-03-12T15:25:34.246Z,10.17
2023-03-12T15:28:25.554Z,10.13
2023-03-12T15:31:16.598Z,10.10
2023-03-12T15:33:44.434Z,10.06
2023-03-12T15:36:17.474Z,10.06
2023-03-12T15:38:57.693Z,10.03
2023-03-12T15:41:36.785Z,10.00
2023-03-12T15:44:03.374Z,10.02
2023-03-12T15:46:29.953Z,10.04
2023-03-12T15:48:58.974Z,10.06
2023-03-12T15:51:31.448Z,10.02
2023-03-12T15:54:17.216Z,9.93
2023-03-12T15:56:43.953Z,9.85
2023-03-12T15:59:16.684Z,9.80
2023-03-12T16:01:51.338Z,9.77
2023-03-12T16:04:17.875Z,9.77
2023-03-12T16:06:48.177Z,9.76
2023-03-12T16:09:27.299Z,9.75
2023-03-12T16:11:55.472Z,9.73
2023-03-12T16:14:30.669Z,9.71
2023-03-12T16:16:57.474Z,9.70
2023-03-12T16:19:27.827Z,9.69
2023-03-12T16:21:54.300Z,9.65
2023-03-12T16:24:20.792Z,9.62
2023-03-12T16:26:55.474Z,9.61
2023-03-12T16:29:24.471Z,9.58
2023-03-12T16:31:56.695Z,9.54
2023-03-12T16:34:23.200Z,9.54
2023-03-12T16:36:49.900Z,9.50
2023-03-12T16:39:18.469Z,9.49
2023-03-12T16:41:45.393Z,9.48
2023-03-12T16:44:17.803Z,9.46
2023-03-12T16:46:44.977Z,9.38
2023-03-12T16:49:16.454Z,9.35
2023-03-12T16:51:43.140Z,9.33
2023-03-12T16:54:11.970Z,9.30
2023-03-12T16:56:42.698Z,9.27
2023-03-12T16:59:20.834Z,9.26
2023-03-12T17:01:47.381Z,9.26
2023-03-12T17:04:13.966Z,9.27
2023-03-12T17:06:40.470Z,9.24
2023-03-12T17:09:08.432Z,9.20
2023-03-12T17:11:37.788Z,9.19
2023-03-12T17:14:15.793Z,9.21
2023-03-12T17:16:42.250Z,9.21
2023-03-12T17:19:08.774Z,9.18
2023-03-12T17:21:35.508Z,9.15
2023-03-12T17:24:01.980Z,9.14
2023-03-12T17:26:28.490Z,9.17
2023-03-12T17:28:54.961Z,9.12
2023-03-12T17:31:21.506Z,9.09
2023-03-12T17:33:48.014Z,9.02
2023-03-12T17:36:14.459Z,9.03
2023-03-12T17:38:40.927Z,9.00
2023-03-12T17:41:23.472Z,8.93
2023-03-12T17:43:52.236Z,8.93
2023-03-12T17:46:18.806Z,8.88
2023-03-12T17:48:45.290Z,8.85
2023-03-12T17:51:11.722Z,8.85
2023-03-12T17:53:41.897Z,8.82
2023-03-12T17:56:09.156Z,8.83
2023-03-12T17:58:35.605Z,8.83
2023-03-12T18:01:02.178Z,8.84
2023-03-12T18:03:28.737Z,8.85
2023-03-12T18:05:55.740Z,8.87
2023-03-12T18:08:22.236Z,8.87
2023-03-12T18:10:49.041Z,8.89
2023-03-12T18:13:15.451Z,8.86
2023-03-12T18:15:41.912Z,8.84
2023-03-12T18:18:08.625Z,8.81
2023-03-12T18:20:39.376Z,8.80
2023-03-12T18:23:06.850Z,8.83
2023-03-12T18:25:33.796Z,8.83
2023-03-12T18:28:00.306Z,8.84
2023-03-12T18:30:28.244Z,8.84
2023-03-12T18:32:54.869Z,8.84
2023-03-12T18:35:22.643Z,8.85
2023-03-12T18:37:53.020Z,8.87
2023-03-12T18:40:19.557Z,8.90
2023-03-12T18:42:45.999Z,8.93
2023-03-12T18:45:12.712Z,8.94
2023-03-12T18:47:39.660Z,8.92
2023-03-12T18:50:07.839Z,8.93
2023-03-12T18:52:34.667Z,8.96
2023-03-12T18:55:01.669Z,8.95
2023-03-12T18:57:28.252Z,8.94
2023-03-12T18:59:54.683Z,8.93
2023-03-12T19:02:21.130Z,8.93
2023-03-12T19:04:47.638Z,8.94
2023-03-12T19:07:14.250Z,8.94
2023-03-12T19:09:40.750Z,8.91
2023-03-12T19:12:07.362Z,8.89
2023-03-12T19:14:33.888Z,8.88
2023-03-12T19:17:00.398Z,8.88
2023-03-12T19:19:26.901Z,8.88
2023-03-12T19:21:53.533Z,8.92
2023-03-12T19:24:19.977Z,8.93
2023-03-12T19:26:46.500Z,8.94
2023-03-12T19:29:15.158Z,8.91
2023-03-12T19:31:41.938Z,8.91
2023-03-12T19:34:08.816Z,8.86
2023-03-12T19:36:35.427Z,8.87
2023-03-12T19:39:04.382Z,8.86
2023-03-12T19:41:33.244Z,8.85
2023-03-12T19:43:59.662Z,8.85
2023-03-12T19:46:26.071Z,8.86
2023-03-12T19:48:53.406Z,8.87
2023-03-12T19:51:19.832Z,8.90
2023-03-12T19:53:46.296Z,8.89
2023-03-12T19:56:12.700Z,8.88
2023-03-12T19:58:39.134Z,8.85
2023-03-12T20:01:05.710Z,8.84
2023-03-12T20:03:32.923Z,8.80
2023-03-12T20:05:59.894Z,8.78
2023-03-12T20:08:32.714Z,8.76
2023-03-12T20:11:06.746Z,8.75
2023-03-12T20:13:33.993Z,8.74
2023-03-12T20:16:01.382Z,8.74
2023-03-12T20:18:27.927Z,8.71
2023-03-12T20:20:54.334Z,8.69
2023-03-12T20:23:20.779Z,8.71
2023-03-12T20:25:50.813Z,8.67
2023-03-12T20:28:17.848Z,8.64
2023-03-12T20:30:44.754Z,8.65
2023-03-12T20:33:11.259Z,8.65
2023-03-12T20:35:37.882Z,8.63
2023-03-12T20:38:04.533Z,8.65
2023-03-12T20:40:31.180Z,8.64
2023-03-12T20:42:57.669Z,8.62
2023-03-12T20:45:24.158Z,8.61
2023-03-12T20:47:50.722Z,8.62
2023-03-12T20:50:17.381Z,8.62
2023-03-12T20:52:44.938Z,8.58
2023-03-12T20:55:11.491Z,8.58
2023-03-12T20:57:37.918Z,8.60
2023-03-12T21:00:05.523Z,8.62
2023-03-12T21:02:32.101Z,8.64
2023-03-12T21:04:58.560Z,8.63
2023-03-12T21:07:24.975Z,8.63
2023-03-12T21:09:51.679Z,8.63
2023-03-12T21:12:18.078Z,8.63
2023-03-12T21:14:44.514Z,8.61
2023-03-12T21:17:13.606Z,8.61
2023-03-12T21:19:43.838Z,8.61
2023-03-12T21:22:10.295Z,8.61
2023-03-12T21:24:36.879Z,8.62
2023-03-12T21:27:03.704Z,8.61
2023-03-12T21:29:30.185Z,8.63
2023-03-12T21:31:57.379Z,8.59
2023-03-12T21:34:23.946Z,8.60
2023-03-12T21:36:50.433Z,8.64
2023-03-12T21:39:17.552Z,8.64
2023-03-12T21:41:44.045Z,8.62
2023-03-12T21:44:10.474Z,8.59
2023-03-12T21:46:37.276Z,8.58
2023-03-12T21:49:03.939Z,8.57
2023-03-12T21:51:30.550Z,8.56
2023-03-12T21:53:58.291Z,8.55
2023-03-12T21:56:28.050Z,8.54
2023-03-12T21:58:56.726Z,8.52
2023-03-12T22:01:23.500Z,8.48
2023-03-12T22:03:50.296Z,8.47
2023-03-12T22:06:16.838Z,8.45
2023-03-12T22:08:44.573Z,8.41
2023-03-12T22:11:11.116Z,8.40
2023-03-12T22:13:37.917Z,8.36
2023-03-12T22:16:08.058Z,8.36
2023-03-12T22:18:38.987Z,8.34
2023-03-12T22:21:07.337Z,8.33
2023-03-12T22:23:36.040Z,8.36
2023-03-12T22:26:04.557Z,8.37
2023-03-12T22:28:31.591Z,8.40
2023-03-12T22:31:03.878Z,8.39
2023-03-12T22:33:30.713Z,8.40
2023-03-12T22:35:57.583Z,8.40
2023-03-12T22:38:24.877Z,8.41
2023-03-12T22:40:53.702Z,8.40
2023-03-12T22:43:21.645Z,8.39
2023-03-12T22:45:52.956Z,8.37
2023-03-12T22:48:19.436Z,8.37
2023-03-12T22:50:53.474Z,8.37
2023-03-12T22:53:19.978Z,8.39
2023-03-12T22:55:46.455Z,8.36
2023-03-12T22:58:13.057Z,8.33
2023-03-12T23:00:39.506Z,8.32
2023-03-12T23:03:05.940Z,8.33
2023-03-12T23:05:32.424Z,8.32
2023-03-12T23:07:58.935Z,8.33
2023-03-12T23:10:25.367Z,8.31
2023-03-12T23:12:51.798Z,8.33
2023-03-12T23:15:19.798Z,8.30
2023-03-12T23:17:46.356Z,8.30
2023-03-12T23:20:13.499Z,8.30
2023-03-12T23:22:39.978Z,8.27
2023-03-12T23:25:06.936Z,8.24
2023-03-12T23:27:33.884Z,8.24
2023-03-12T23:30:00.292Z,8.22
2023-03-12T23:32:26.782Z,8.19
2023-03-12T23:34:53.335Z,8.17
2023-03-12T23:37:19.816Z,8.17
2023-03-12T23:39:54.582Z,8.15
2023-03-12T23:42:21.636Z,8.14
2023-03-12T23:44:48.078Z,8.15
2023-03-12T23:47:14.565Z,8.16
2023-03-12T23:49:41.072Z,8.14
2023-03-12T23:52:07.585Z,8.12
2023-03-12T23:54:34.148Z,8.11
2023-03-12T23:57:00.626Z,8.12
2023-03-12T23:59:27.068Z,8.12
